Time;durP1;ratioP1;P1;durP2;ratioP2;P2;SDS_P1;SDS_P2;PMS_P1;PMS_P2;Temp;Humidity;BMP_temperature;BMP_pressure;BME280_temperature;BME280_humidity;BME280_pressure;Samples;Min_cycle;Max_cycle;Signal;HPM_P1;HPM_P2
2020/12/28 00:01:59;;;;;;;0.20;0.10;;;;;;;5.62;100.00;96707.28;5007281;28;20460;-50
2020/12/28 00:04:25;;;;;;;0.20;0.10;;;;;;;5.48;100.00;96699.41;5007059;28;20958;-50
2020/12/28 00:06:51;;;;;;;0.20;0.10;;;;;;;5.53;100.00;96695.53;5007216;28;20480;-50
2020/12/28 00:09:18;;;;;;;0.20;0.20;;;;;;;5.65;100.00;96684.19;5003043;28;20543;-50
2020/12/28 00:11:44;;;;;;;0.20;0.10;;;;;;;5.61;100.00;96680.06;5007840;28;20538;-50
2020/12/28 00:14:11;;;;;;;0.20;0.10;;;;;;;5.65;100.00;96684.19;5007746;28;20506;-49
2020/12/28 00:16:38;;;;;;;0.20;0.10;;;;;;;5.60;100.00;96686.28;5006443;28;20468;-50
2020/12/28 00:19:06;;;;;;;0.20;0.20;;;;;;;5.70;100.00;96683.03;5004043;28;20511;-50
2020/12/28 00:21:33;;;;;;;0.20;0.10;;;;;;;5.59;100.00;96670.56;5008871;28;20460;-50
2020/12/28 00:23:59;;;;;;;0.20;0.10;;;;;;;5.56;100.00;96676.06;5004954;28;20468;-50
2020/12/28 00:26:25;;;;;;;0.30;0.20;;;;;;;5.72;100.00;96681.13;5006337;28;21020;-51
2020/12/28 00:28:52;;;;;;;0.20;0.10;;;;;;;5.60;100.00;96691.53;5006949;28;20452;-50
2020/12/28 00:31:18;;;;;;;0.20;0.10;;;;;;;5.64;100.00;96695.69;5005078;28;21047;-52
2020/12/28 00:33:44;;;;;;;0.20;0.10;;;;;;;5.70;100.00;96710.22;5006794;28;20469;-50
2020/12/28 00:36:14;;;;;;;0.20;0.20;;;;;;;5.62;100.00;96702.84;5004853;28;20496;-49
2020/12/28 00:38:40;;;;;;;0.20;0.10;;;;;;;5.64;100.00;96697.47;5006917;28;20523;-51
2020/12/28 00:41:09;;;;;;;0.20;0.10;;;;;;;5.59;100.00;96699.53;5005605;28;20457;-51
2020/12/28 00:43:35;;;;;;;0.20;0.10;;;;;;;5.68;100.00;96696.31;5006278;28;20464;-50
2020/12/28 00:46:06;;;;;;;0.20;0.10;;;;;;;5.59;100.00;96692.47;5005284;28;20470;-50
2020/12/28 00:48:38;;;;;;;0.20;0.10;;;;;;;5.75;100.00;96700.22;5072457;28;20566;-51
2020/12/28 00:51:05;;;;;;;0.20;0.10;;;;;;;5.79;100.00;96695.59;5054431;28;20515;-52
2020/12/28 00:53:31;;;;;;;0.20;0.10;;;;;;;5.66;100.00;96695.56;5056658;28;20487;-52
2020/12/28 00:55:58;;;;;;;0.20;0.10;;;;;;;5.63;100.00;96701.06;5056810;28;20500;-54
2020/12/28 00:58:25;;;;;;;0.20;0.20;;;;;;;5.67;100.00;96681.44;5055300;28;20544;-53
2020/12/28 01:00:52;;;;;;;0.20;0.10;;;;;;;5.59;100.00;96695.13;5058287;28;20543;-53
2020/12/28 01:03:18;;;;;;;0.20;0.20;;;;;;;5.70;100.00;96693.56;5054616;28;20559;-52
2020/12/28 01:05:44;;;;;;;0.20;0.10;;;;;;;5.60;100.00;96696.81;5057403;28;20451;-52
2020/12/28 01:08:10;;;;;;;0.20;0.10;;;;;;;5.52;100.00;96685.13;5055994;28;20633;-52
2020/12/28 01:10:37;;;;;;;0.20;0.10;;;;;;;5.69;100.00;96682.19;5052989;28;20556;-52
2020/12/28 01:13:06;;;;;;;0.20;0.13;;;;;;;5.65;100.00;96680.72;5055207;28;20458;-52
2020/12/28 01:15:32;;;;;;;0.20;0.10;;;;;;;5.55;100.00;96675.22;5060839;28;20459;-52
2020/12/28 01:17:59;;;;;;;0.20;0.10;;;;;;;5.56;100.00;96676.91;5058949;28;20473;-52
2020/12/28 01:20:25;;;;;;;0.20;0.20;;;;;;;5.58;100.00;96680.25;5060038;28;20971;-52
2020/12/28 01:22:52;;;;;;;0.20;0.10;;;;;;;5.62;100.00;96691.47;5059324;28;20485;-52
2020/12/28 01:25:18;;;;;;;0.20;0.20;;;;;;;5.58;100.00;96693.44;5056856;28;20517;-52
2020/12/28 01:27:44;;;;;;;0.20;0.20;;;;;;;5.57;100.00;96698.81;5058026;28;20497;-52
2020/12/28 01:30:10;;;;;;;0.20;0.10;;;;;;;5.52;100.00;96693.00;5056145;28;20485;-52
2020/12/28 01:32:36;;;;;;;0.20;0.17;;;;;;;5.52;100.00;96685.94;5055228;28;20467;-52
2020/12/28 01:35:02;;;;;;;0.20;0.10;;;;;;;5.51;100.00;96700.06;5060360;28;20458;-52
2020/12/28 01:37:29;;;;;;;0.20;0.20;;;;;;;5.56;100.00;96684.78;5059348;28;21048;-53
2020/12/28 01:39:55;;;;;;;0.20;0.10;;;;;;;5.64;100.00;96657.94;5053317;28;20516;-52
2020/12/28 01:42:22;;;;;;;0.20;0.10;;;;;;;5.52;100.00;96675.41;5059059;28;20971;-53
2020/12/28 01:44:48;;;;;;;0.20;0.10;;;;;;;5.58;100.00;96685.53;5059161;28;20477;-53
2020/12/28 01:47:15;;;;;;;0.20;0.20;;;;;;;5.49;100.00;96693.22;5052697;28;20494;-53
2020/12/28 01:49:41;;;;;;;0.20;0.10;;;;;;;5.53;100.00;96695.53;5057141;28;20473;-53
2020/12/28 01:52:08;;;;;;;0.20;0.10;;;;;;;5.57;100.00;96694.38;5057127;28;20486;-53
2020/12/28 01:54:34;;;;;;;0.20;0.10;;;;;;;5.54;100.00;96686.69;5057379;28;20939;-53
2020/12/28 01:57:01;;;;;;;0.20;0.20;;;;;;;5.53;100.00;96677.09;5057710;28;20504;-53
2020/12/28 01:59:27;;;;;;;0.20;0.10;;;;;;;5.56;100.00;96671.63;5046319;28;20458;-52
2020/12/28 02:01:56;;;;;;;0.20;0.10;;;;;;;5.63;100.00;96691.34;5045043;28;20466;-53
2020/12/28 02:04:22;;;;;;;0.20;0.10;;;;;;;5.57;100.00;96691.75;5045501;28;20456;-53
2020/12/28 02:06:50;;;;;;;0.20;0.10;;;;;;;5.52;100.00;96695.66;5044444;28;20501;-53
2020/12/28 02:09:16;;;;;;;0.20;0.10;;;;;;;5.51;100.00;96693.97;5043718;28;20525;-52
2020/12/28 02:11:42;;;;;;;0.20;0.10;;;;;;;5.46;100.00;96699.50;5041283;28;20463;-53
2020/12/28 02:14:08;;;;;;;0.20;0.10;;;;;;;5.57;100.00;96688.28;5043494;28;20497;-52
2020/12/28 02:16:35;;;;;;;0.20;0.10;;;;;;;5.47;100.00;96688.03;5040153;28;20462;-53
2020/12/28 02:19:01;;;;;;;0.20;0.20;;;;;;;5.52;100.00;96685.94;5043900;28;20455;-54
2020/12/28 02:21:27;;;;;;;0.20;0.10;;;;;;;5.44;100.00;96682.97;5049896;28;20470;-53
2020/12/28 02:23:54;;;;;;;0.20;0.13;;;;;;;5.34;100.00;96698.56;5047243;28;20621;-52
2020/12/28 02:26:20;;;;;;;0.20;0.10;;;;;;;5.34;100.00;96700.31;5042812;28;20466;-52
2020/12/28 02:28:46;;;;;;;0.20;0.20;;;;;;;5.31;100.00;96682.09;5045218;28;20862;-53
2020/12/28 02:31:12;;;;;;;0.20;0.10;;;;;;;5.41;100.00;96675.28;5046285;28;20459;-52
2020/12/28 02:33:40;;;;;;;0.20;0.10;;;;;;;5.53;100.00;96671.84;5045069;28;20893;-53
2020/12/28 02:36:08;;;;;;;0.20;0.10;;;;;;;5.37;100.00;96670.34;5044334;28;20473;-53
2020/12/28 02:38:37;;;;;;;0.20;0.10;;;;;;;5.48;100.00;96673.94;5044204;28;20822;-53
2020/12/28 02:41:06;;;;;;;0.20;0.10;;;;;;;5.46;100.00;96661.81;5040517;28;20931;-53
2020/12/28 02:43:32;;;;;;;0.20;0.10;;;;;;;5.41;100.00;96664.75;5047514;28;20882;-53
2020/12/28 02:45:59;;;;;;;0.20;0.10;;;;;;;5.54;100.00;96675.31;5045058;28;20462;-53
2020/12/28 02:48:25;;;;;;;0.20;0.17;;;;;;;5.54;100.00;96678.78;5042205;28;21023;-53
2020/12/28 02:50:52;;;;;;;0.20;0.10;;;;;;;5.53;100.00;96666.56;5040315;28;20467;-53
2020/12/28 02:53:18;;;;;;;0.20;0.20;;;;;;;5.53;100.00;96669.19;5042596;28;20456;-53
2020/12/28 02:55:44;;;;;;;0.20;0.10;;;;;;;5.49;100.00;96665.09;5043587;28;20466;-53
2020/12/28 02:58:10;;;;;;;0.20;0.10;;;;;;;5.49;100.00;96662.47;5041250;28;20485;-53
2020/12/28 03:00:37;;;;;;;0.30;0.20;;;;;;;5.49;100.00;96665.09;5050385;28;20516;-53
2020/12/28 03:03:03;;;;;;;0.20;0.10;;;;;;;5.53;100.00;96666.56;5036555;28;20966;-53
2020/12/28 03:05:29;;;;;;;0.20;0.10;;;;;;;5.52;100.00;96675.41;5046791;28;20469;-53
2020/12/28 03:07:55;;;;;;;0.20;0.10;;;;;;;5.53;100.00;96685.00;5042484;28;20993;-53
2020/12/28 03:10:22;;;;;;;0.20;0.10;;;;;;;5.51;100.00;96673.72;5047393;28;20959;-53
2020/12/28 03:12:48;;;;;;;0.20;0.10;;;;;;;5.49;100.00;96669.53;5046018;28;20977;-52
2020/12/28 03:15:15;;;;;;;0.20;0.10;;;;;;;5.51;100.00;96672.88;5041521;28;20549;-52
2020/12/28 03:17:41;;;;;;;0.20;0.10;;;;;;;5.60;100.00;96678.38;5041672;28;20479;-52
2020/12/28 03:20:07;;;;;;;0.20;0.10;;;;;;;5.49;100.00;96666.88;5047815;28;20466;-52
2020/12/28 03:22:33;;;;;;;0.20;0.10;;;;;;;5.64;100.00;96665.84;5044526;28;20484;-54
2020/12/28 03:25:00;;;;;;;0.20;0.10;;;;;;;5.51;100.00;96665.00;5037201;28;20473;-52
2020/12/28 03:27:26;;;;;;;0.20;0.20;;;;;;;5.81;100.00;96652.38;5050838;28;20494;-52
2020/12/28 03:29:52;;;;;;;0.20;0.10;;;;;;;5.69;100.00;96655.84;5045902;28;20458;-52
2020/12/28 03:32:18;;;;;;;0.20;0.10;;;;;;;5.35;100.00;96647.59;5041511;28;20447;-52
2020/12/28 03:34:44;;;;;;;0.20;0.10;;;;;;;5.45;100.00;96644.31;5043245;28;20485;-52
2020/12/28 03:37:10;;;;;;;0.20;0.13;;;;;;;5.44;100.00;96635.56;5049526;28;20477;-52
2020/12/28 03:39:37;;;;;;;0.20;0.20;;;;;;;5.43;100.00;96630.41;5045841;28;20462;-52
2020/12/28 03:42:06;;;;;;;0.20;0.10;;;;;;;5.14;100.00;96627.09;5043758;28;20505;-51
2020/12/28 03:44:32;;;;;;;0.20;0.10;;;;;;;5.34;100.00;96627.47;5042871;28;20461;-51
2020/12/28 03:46:58;;;;;;;0.20;0.10;;;;;;;5.58;100.00;96621.47;5052487;28;20999;-53
2020/12/28 03:49:24;;;;;;;0.20;0.10;;;;;;;5.42;100.00;96631.34;5039453;28;20455;-52
2020/12/28 03:51:52;;;;;;;0.20;0.20;;;;;;;5.50;100.00;96635.19;5043196;28;20461;-52
2020/12/28 03:54:19;;;;;;;0.20;0.10;;;;;;;5.30;100.00;96625.97;5035634;28;20461;-51
2020/12/28 03:56:45;;;;;;;0.20;0.10;;;;;;;5.41;100.00;96621.78;5042729;28;20887;-52
2020/12/28 03:59:11;;;;;;;0.20;0.10;;;;;;;5.42;100.00;96626.94;5036846;28;20459;-53
2020/12/28 04:01:37;;;;;;;0.20;0.10;;;;;;;5.37;100.00;96622.94;5042291;28;20447;-52
2020/12/28 04:04:03;;;;;;;0.20;0.10;;;;;;;5.47;100.00;96630.09;5039365;28;20450;-53
2020/12/28 04:06:29;;;;;;;0.20;0.10;;;;;;;5.56;100.00;96634.75;5042460;28;20451;-52
2020/12/28 04:08:56;;;;;;;0.20;0.10;;;;;;;5.51;100.00;96631.59;5045638;28;20514;-52
2020/12/28 04:11:22;;;;;;;0.20;0.10;;;;;;;5.66;100.00;96637.63;5042448;28;20447;-52
2020/12/28 04:13:48;;;;;;;0.20;0.20;;;;;;;5.64;100.00;96643.00;5037131;28;20467;-52
2020/12/28 04:16:16;;;;;;;0.20;0.10;;;;;;;5.57;100.00;96648.75;5042775;28;20446;-52
2020/12/28 04:18:42;;;;;;;0.20;0.10;;;;;;;5.54;100.00;96656.88;5048463;28;20463;-52
2020/12/28 04:21:09;;;;;;;0.20;0.10;;;;;;;5.47;100.00;96664.31;5046436;28;20841;-52
2020/12/28 04:23:35;;;;;;;0.20;0.10;;;;;;;5.42;100.00;96661.16;5049017;28;20582;-53
2020/12/28 04:26:04;;;;;;;0.20;0.10;;;;;;;5.45;100.00;96658.31;5042359;28;20465;-53
2020/12/28 04:28:30;;;;;;;0.20;0.10;;;;;;;5.47;100.00;96656.44;5048411;28;20502;-53
2020/12/28 04:30:56;;;;;;;0.20;0.20;;;;;;;5.48;100.00;96650.25;5034072;28;20459;-53
2020/12/28 04:33:23;;;;;;;0.20;0.10;;;;;;;5.53;100.00;96645.50;5045450;28;20553;-53
2020/12/28 04:35:50;;;;;;;0.20;0.10;;;;;;;5.49;100.00;96635.28;5042516;28;20520;-53
2020/12/28 04:38:16;;;;;;;0.20;0.20;;;;;;;5.51;100.00;96636.03;5038749;28;20545;-53
2020/12/28 04:40:42;;;;;;;0.20;0.10;;;;;;;5.54;100.00;96634.00;5041476;28;20450;-53
2020/12/28 04:43:13;;;;;;;0.20;0.10;;;;;;;5.53;100.00;96623.59;5044194;28;20979;-53
2020/12/28 04:45:42;;;;;;;0.20;0.20;;;;;;;5.63;100.00;96625.50;5036345;28;20495;-53
2020/12/28 04:48:09;;;;;;;0.20;0.10;;;;;;;5.54;100.00;96627.91;5046327;28;20873;-53
2020/12/28 04:50:37;;;;;;;0.20;0.10;;;;;;;5.53;100.00;96629.69;5044494;28;20447;-53
2020/12/28 04:53:04;;;;;;;0.20;0.10;;;;;;;5.56;100.00;96624.22;5038638;28;20446;-53
2020/12/28 04:55:31;;;;;;;0.20;0.10;;;;;;;5.58;100.00;96635.50;5039434;28;20451;-53
2020/12/28 04:57:58;;;;;;;0.20;0.10;;;;;;;5.70;100.00;96625.91;5045380;28;20464;-53
2020/12/28 05:00:25;;;;;;;0.20;0.13;;;;;;;5.71;100.00;96626.75;5042600;28;20465;-53
2020/12/28 05:02:52;;;;;;;0.20;0.20;;;;;;;5.63;100.00;96619.38;5038408;28;20450;-53
2020/12/28 05:05:18;;;;;;;0.20;0.10;;;;;;;5.64;100.00;96616.66;5040887;28;20467;-53
2020/12/28 05:07:53;;;;;;;0.20;0.10;;;;;;;5.56;100.00;96621.59;5038584;28;20498;-53
2020/12/28 05:10:23;;;;;;;0.20;0.10;;;;;;;5.57;100.00;96619.78;5037581;28;20439;-53
2020/12/28 05:12:50;;;;;;;0.20;0.10;;;;;;;5.58;100.00;96616.19;5040385;28;20443;-52
2020/12/28 05:15:16;;;;;;;0.20;0.17;;;;;;;5.48;100.00;96594.94;5038501;28;20505;-52
2020/12/28 05:17:42;;;;;;;0.20;0.10;;;;;;;5.51;100.00;96601.78;5043092;28;20482;-52
2020/12/28 05:20:08;;;;;;;0.20;0.10;;;;;;;5.55;100.00;96606.72;5046566;28;20935;-52
2020/12/28 05:22:35;;;;;;;0.20;0.10;;;;;;;5.52;100.00;96601.66;5050487;28;20943;-52
2020/12/28 05:25:01;;;;;;;0.20;0.10;;;;;;;5.51;100.00;96601.78;5037951;28;20448;-51
2020/12/28 05:27:27;;;;;;;0.20;0.20;;;;;;;5.55;100.00;96604.09;5051742;28;20486;-52
2020/12/28 05:29:54;;;;;;;0.20;0.10;;;;;;;5.57;100.00;96599.56;5037954;28;20443;-52
2020/12/28 05:32:23;;;;;;;0.20;0.10;;;;;;;5.61;100.00;96608.09;5040904;28;20478;-52
2020/12/28 05:34:49;;;;;;;0.20;0.10;;;;;;;5.57;100.00;96611.88;5047339;28;20454;-52
2020/12/28 05:37:16;;;;;;;0.20;0.10;;;;;;;5.59;100.00;96617.88;5044148;28;20462;-52
2020/12/28 05:39:43;;;;;;;0.20;0.13;;;;;;;5.56;100.00;96618.94;5041864;28;21028;-52
2020/12/28 05:42:13;;;;;;;0.20;0.20;;;;;;;5.58;100.00;96611.78;5046073;28;20976;-52
2020/12/28 05:44:41;;;;;;;0.20;0.10;;;;;;;5.53;100.00;96611.25;5048849;28;20447;-52
2020/12/28 05:47:14;;;;;;;0.20;0.10;;;;;;;5.56;100.00;96607.56;5040554;28;20552;-52
2020/12/28 05:49:43;;;;;;;0.20;0.10;;;;;;;5.53;100.00;96600.72;5039567;28;20496;-52
2020/12/28 05:52:11;;;;;;;0.20;0.10;;;;;;;5.57;100.00;96596.09;5044066;28;20451;-52
2020/12/28 05:54:38;;;;;;;0.20;0.10;;;;;;;5.55;100.00;96601.47;5048792;28;20498;-52
2020/12/28 05:57:05;;;;;;;0.20;0.10;;;;;;;5.48;100.00;96602.84;5046704;28;20467;-52
2020/12/28 05:59:32;;;;;;;0.20;0.10;;;;;;;5.33;100.00;96606.47;5041378;28;20450;-51
2020/12/28 06:02:00;;;;;;;0.20;0.10;;;;;;;5.39;100.00;96608.72;5038235;28;20463;-51
2020/12/28 06:04:27;;;;;;;0.20;0.10;;;;;;;5.51;100.00;96610.53;5048407;28;20960;-52
2020/12/28 06:06:58;;;;;;;0.20;0.20;;;;;;;5.28;100.00;96617.31;5046753;28;21061;-52
2020/12/28 06:09:25;;;;;;;0.20;0.13;;;;;;;5.33;100.00;96622.28;5041343;28;20447;-51
2020/12/28 06:12:09;;;;;;;0.20;0.10;;;;;;;5.27;100.00;96633.22;5041942;28;20546;-52
2020/12/28 06:14:39;;;;;;;0.20;0.20;;;;;;;5.34;100.00;96642.38;5043500;28;20940;-51
2020/12/28 06:17:10;;;;;;;0.20;0.10;;;;;;;5.46;100.00;96651.25;5050725;28;20529;-51
2020/12/28 06:19:37;;;;;;;0.20;0.10;;;;;;;5.50;100.00;96655.41;5044799;28;20439;-52
2020/12/28 06:22:16;;;;;;;0.20;0.10;;;;;;;5.49;100.00;96670.38;5054600;28;20443;-52
2020/12/28 06:24:42;;;;;;;0.20;0.10;;;;;;;5.54;100.00;96665.63;5042010;28;20454;-52
2020/12/28 06:27:10;;;;;;;0.20;0.20;;;;;;;5.58;100.00;96668.88;5053384;28;20487;-52
2020/12/28 06:29:40;;;;;;;0.20;0.10;;;;;;;5.55;100.00;96662.03;5041177;28;20809;-52
2020/12/28 06:32:14;;;;;;;0.20;0.10;;;;;;;5.54;100.00;96663.00;5046175;28;20951;-53
2020/12/28 06:34:44;;;;;;;0.20;0.13;;;;;;;5.60;100.00;96651.19;5040641;28;20455;-51
2020/12/28 06:37:11;;;;;;;0.20;0.20;;;;;;;5.57;100.00;96654.03;5045625;28;20468;-52
2020/12/28 06:39:37;;;;;;;0.20;0.10;;;;;;;5.60;100.00;96651.19;5047408;28;20462;-52
2020/12/28 06:42:14;;;;;;;0.20;0.20;;;;;;;5.63;100.00;96646.56;5043124;28;20473;-52
2020/12/28 06:44:41;;;;;;;0.20;0.10;;;;;;;5.61;100.00;96644.97;5040838;28;20504;-52
2020/12/28 06:47:34;;;;;;;0.20;0.20;;;;;;;5.65;100.00;96633.28;5047629;28;20491;-52
2020/12/28 06:50:00;;;;;;;0.20;0.13;;;;;;;5.67;100.00;96643.72;5040346;28;20980;-52
2020/12/28 06:52:26;;;;;;;0.20;0.10;;;;;;;5.66;100.00;96648.16;5046943;28;20936;-52
2020/12/28 06:54:52;;;;;;;0.20;0.10;;;;;;;5.63;100.00;96648.38;5041561;28;20458;-52
2020/12/28 06:57:23;;;;;;;0.20;0.10;;;;;;;5.62;100.00;96639.63;5038969;28;20980;-52
2020/12/28 06:59:49;;;;;;;0.20;0.10;;;;;;;5.64;100.00;96636.88;5046540;28;20450;-53
2020/12/28 07:02:17;;;;;;;0.20;0.10;;;;;;;5.90;100.00;96643.03;5046783;28;20447;-53
2020/12/28 07:04:43;;;;;;;0.20;0.10;;;;;;;5.71;100.00;96640.78;5038036;28;20466;-53
2020/12/28 07:07:09;;;;;;;0.20;0.10;;;;;;;5.72;100.00;96639.81;5034222;28;20471;-52
2020/12/28 07:09:35;;;;;;;0.20;0.10;;;;;;;5.70;100.00;96627.72;5045592;28;20459;-52
2020/12/28 07:12:09;;;;;;;0.20;0.20;;;;;;;5.78;100.00;96634.16;5046656;28;20451;-52
2020/12/28 07:14:36;;;;;;;0.20;0.10;;;;;;;5.72;100.00;96634.56;5043248;28;20508;-52
2020/12/28 07:17:03;;;;;;;0.20;0.10;;;;;;;5.62;100.00;96644.06;5040215;28;20483;-52
2020/12/28 07:19:30;;;;;;;0.20;0.10;;;;;;;5.67;100.00;96633.19;5044952;28;20451;-52
2020/12/28 07:21:56;;;;;;;0.30;0.20;;;;;;;5.73;100.00;96641.50;5053347;28;20939;-52
2020/12/28 07:24:22;;;;;;;0.20;0.10;;;;;;;5.58;100.00;96653.91;5041619;28;20467;-52
2020/12/28 07:26:49;;;;;;;0.20;0.20;;;;;;;5.62;100.00;96655.44;5042864;28;20478;-51
2020/12/28 07:29:18;;;;;;;0.30;0.10;;;;;;;5.59;100.00;96657.41;5043691;28;20545;-52
2020/12/28 07:31:46;;;;;;;0.20;0.20;;;;;;;5.64;100.00;96658.78;5046652;28;20447;-52
2020/12/28 07:34:16;;;;;;;0.20;0.10;;;;;;;5.61;100.00;96656.34;5033500;28;20454;-57
2020/12/28 07:36:45;;;;;;;0.20;0.10;;;;;;;5.64;100.00;96650.91;5046842;28;20463;-54
2020/12/28 07:39:12;;;;;;;0.20;0.10;;;;;;;5.61;100.00;96664.25;5044758;28;20845;-54
2020/12/28 07:41:39;;;;;;;0.20;0.10;;;;;;;5.63;100.00;96670.28;5036202;28;20463;-53
2020/12/28 07:44:06;;;;;;;0.20;0.20;;;;;;;5.71;100.00;96677.66;5045280;28;20451;-53
2020/12/28 07:46:33;;;;;;;0.20;0.20;;;;;;;5.75;100.00;96673.00;5039485;28;20513;-52
2020/12/28 07:49:14;;;;;;;0.20;0.20;;;;;;;5.86;100.00;96694.22;5040603;28;20533;-53
2020/12/28 07:51:41;;;;;;;0.20;0.10;;;;;;;5.98;100.00;96688.16;5040659;28;20819;-53
2020/12/28 07:54:17;;;;;;;0.20;0.10;;;;;;;5.78;100.00;96684.22;5039720;28;20452;-53
2020/12/28 07:56:46;;;;;;;0.30;0.20;;;;;;;5.72;100.00;96689.88;5049219;28;20505;-53
2020/12/28 07:59:40;;;;;;;0.20;0.20;;;;;;;5.71;100.00;96675.03;5039185;28;20808;-53
2020/12/28 08:02:41;;;;;;;0.20;0.10;;;;;;;5.69;100.00;96673.44;5040906;28;20448;-51
2020/12/28 08:05:09;;;;;;;0.20;0.10;;;;;;;5.55;100.00;96674.38;5052217;28;20451;-52
2020/12/28 08:07:35;;;;;;;0.20;0.10;;;;;;;5.61;100.00;96666.88;5036682;28;20498;-52
2020/12/28 08:10:08;;;;;;;0.20;0.20;;;;;;;5.52;100.00;96671.94;5041257;28;20451;-52
2020/12/28 08:12:52;;;;;;;0.20;0.10;;;;;;;5.56;100.00;96663.72;5051435;28;20876;-52
2020/12/28 08:15:29;;;;;;;0.20;0.10;;;;;;;5.46;100.00;96648.63;5043484;28;20456;-52
2020/12/28 08:18:10;;;;;;;0.20;0.10;;;;;;;5.43;100.00;96648.84;5064395;28;20509;-51
2020/12/28 08:20:40;;;;;;;0.20;0.10;;;;;;;5.32;100.00;96646.91;5059093;28;20446;-52
2020/12/28 08:23:06;;;;;;;0.20;0.10;;;;;;;5.27;100.00;96647.22;5065215;28;20463;-52
2020/12/28 08:25:34;;;;;;;0.20;0.10;;;;;;;5.23;100.00;96637.00;5055463;28;20447;-51
2020/12/28 08:28:02;;;;;;;0.20;0.20;;;;;;;5.30;100.00;96636.50;5073600;28;20477;-52
2020/12/28 08:30:30;;;;;;;0.20;0.10;;;;;;;5.29;100.00;96636.59;5052053;28;20454;-51
2020/12/28 08:32:59;;;;;;;0.20;0.10;;;;;;;5.25;100.00;96629.84;5066795;28;20450;-52
2020/12/28 08:35:26;;;;;;;0.20;0.10;;;;;;;5.18;100.00;96618.88;5066487;28;20455;-52
2020/12/28 08:37:53;;;;;;;0.20;0.20;;;;;;;5.17;100.00;96625.09;5066820;28;20463;-51
2020/12/28 08:40:21;;;;;;;0.20;0.13;;;;;;;5.34;100.00;96619.56;5059424;28;20490;-51
2020/12/28 08:42:55;;;;;;;0.20;0.10;;;;;;;5.25;100.00;96627.22;5068847;28;20431;-51
2020/12/28 08:45:24;;;;;;;0.20;0.13;;;;;;;5.35;100.00;96626.50;5063649;28;20532;-51
2020/12/28 08:47:55;;;;;;;0.20;0.20;;;;;;;5.42;100.00;96634.00;5063793;28;20553;-53
2020/12/28 08:50:22;;;;;;;0.20;0.10;;;;;;;5.46;100.00;96644.22;5059980;28;20486;-51
2020/12/28 08:52:57;;;;;;;0.20;0.10;;;;;;;5.42;100.00;96652.41;5068817;28;20462;-53
2020/12/28 08:55:24;;;;;;;0.20;0.20;;;;;;;5.43;100.00;96643.56;5068645;28;20458;-51
2020/12/28 08:57:55;;;;;;;0.20;0.10;;;;;;;5.47;100.00;96645.88;5059442;28;20474;-51
2020/12/28 09:00:23;;;;;;;0.20;0.10;;;;;;;5.58;100.00;96655.72;5053566;28;20525;-52
2020/12/28 09:02:55;;;;;;;0.20;0.10;;;;;;;5.68;100.00;96643.63;5043865;28;20561;-51
2020/12/28 09:05:23;;;;;;;0.20;0.10;;;;;;;5.70;100.00;96652.25;5039527;28;20508;-51
2020/12/28 09:07:50;;;;;;;0.20;0.10;;;;;;;5.83;100.00;96654.91;5040249;28;20501;-51
2020/12/28 09:10:17;;;;;;;0.20;0.10;;;;;;;5.82;100.00;96656.69;5048502;28;20459;-51
2020/12/28 09:12:44;;;;;;;0.20;0.20;;;;;;;5.70;100.00;96656.69;5043577;28;21001;-52
2020/12/28 09:15:10;;;;;;;0.20;0.10;;;;;;;5.78;100.00;96651.75;5047547;28;20462;-52
2020/12/28 09:17:37;;;;;;;0.20;0.20;;;;;;;5.81;100.00;96656.81;5044725;28;20471;-51
2020/12/28 09:20:05;;;;;;;0.20;0.20;;;;;;;5.82;100.00;96650.59;5041680;28;20586;-52
2020/12/28 09:22:32;;;;;;;0.20;0.10;;;;;;;5.72;100.00;96639.81;5044908;28;20464;-52
2020/12/28 09:24:58;;;;;;;0.20;0.10;;;;;;;5.91;100.00;96652.63;5046928;28;20454;-52
2020/12/28 09:27:26;;;;;;;0.63;0.63;;;;;;;5.90;100.00;96646.53;5055057;28;20490;-53
2020/12/28 09:29:52;;;;;;;0.20;0.10;;;;;;;5.85;100.00;96642.47;5045344;28;20545;-52
2020/12/28 09:32:18;;;;;;;0.20;0.10;;;;;;;5.57;100.00;96638.22;5040811;28;20459;-52
2020/12/28 09:34:44;;;;;;;0.20;0.13;;;;;;;5.48;100.00;96630.94;5044101;28;20465;-53
2020/12/28 09:37:11;;;;;;;0.20;0.10;;;;;;;5.45;100.00;96631.16;5044581;28;20567;-52
2020/12/28 09:39:37;;;;;;;0.20;0.10;;;;;;;5.41;100.00;96634.94;5039527;28;20516;-52
2020/12/28 09:42:04;;;;;;;0.20;0.10;;;;;;;5.48;100.00;96634.44;5045527;28;20534;-53
2020/12/28 09:44:30;;;;;;;0.20;0.10;;;;;;;5.56;100.00;96642.66;5046049;28;20458;-52
2020/12/28 09:46:57;;;;;;;0.20;0.20;;;;;;;5.57;100.00;96646.13;5044526;28;20490;-52
2020/12/28 09:49:24;;;;;;;0.20;0.13;;;;;;;5.35;100.00;96638.84;5047006;28;20490;-52
2020/12/28 09:51:54;;;;;;;0.20;0.10;;;;;;;5.44;100.00;96648.75;5045436;28;20455;-54
2020/12/28 09:54:21;;;;;;;0.20;0.10;;;;;;;5.36;100.00;96643.16;5050357;28;20520;-52
2020/12/28 09:57:06;;;;;;;0.20;0.10;;;;;;;5.36;100.00;96651.06;5048014;28;20572;-52
2020/12/28 09:59:37;;;;;;;0.20;0.10;;;;;;;5.38;100.00;96649.16;5046787;28;20485;-52
2020/12/28 10:02:04;;;;;;;0.20;0.20;;;;;;;5.36;100.00;96637.88;5045642;28;20984;-51
2020/12/28 10:04:31;;;;;;;0.20;0.10;;;;;;;5.55;100.00;96634.84;5043950;28;20463;-52
2020/12/28 10:06:57;;;;;;;0.20;0.10;;;;;;;5.50;100.00;96644.88;5046570;28;20486;-52
2020/12/28 10:09:23;;;;;;;0.20;0.10;;;;;;;5.51;100.00;96638.66;5045263;28;20503;-53
2020/12/28 10:11:50;;;;;;;0.20;0.10;;;;;;;5.50;100.00;96624.63;5048718;28;20464;-52
2020/12/28 10:14:16;;;;;;;0.20;0.20;;;;;;;5.59;100.00;96633.69;5040300;28;20460;-52
2020/12/28 10:16:43;;;;;;;0.20;0.10;;;;;;;5.65;100.00;96636.78;5047773;28;20479;-52
2020/12/28 10:19:09;;;;;;;0.20;0.10;;;;;;;5.70;100.00;96630.34;5052433;28;20456;-52
2020/12/28 10:21:35;;;;;;;0.20;0.10;;;;;;;5.90;100.00;96621.97;5053166;28;20459;-52
2020/12/28 10:24:03;;;;;;;0.20;0.10;;;;;;;5.85;100.00;96627.50;5049229;28;21777;-51
2020/12/28 10:26:29;;;;;;;0.30;0.20;;;;;;;5.91;100.00;96623.66;5050179;28;20490;-52
2020/12/28 10:28:57;;;;;;;0.20;0.10;;;;;;;6.21;100.00;96625.94;5041642;28;20517;-52
2020/12/28 10:31:23;;;;;;;0.20;0.10;;;;;;;6.04;100.00;96631.56;5042187;28;20454;-51
2020/12/28 10:33:54;;;;;;;0.20;0.10;;;;;;;6.14;100.00;96617.59;5046886;28;20459;-52
2020/12/28 10:36:28;;;;;;;0.30;0.20;;;;;;;6.19;100.00;96610.22;5041353;28;20557;-53
2020/12/28 10:38:57;;;;;;;0.20;0.10;;;;;;;6.08;100.00;96607.50;5049685;28;20493;-52
2020/12/28 10:41:25;;;;;;;0.20;0.20;;;;;;;6.16;100.00;96602.50;5042831;28;20504;-53
2020/12/28 10:43:53;;;;;;;0.20;0.10;;;;;;;6.27;100.00;96596.47;5043535;28;20464;-52
2020/12/28 10:46:19;;;;;;;0.20;0.20;;;;;;;6.03;100.00;96598.19;5043959;28;20967;-52
2020/12/28 10:48:46;;;;;;;0.20;0.10;;;;;;;6.13;100.00;96588.72;5052545;28;20834;-53
2020/12/28 10:51:12;;;;;;;0.20;0.10;;;;;;;6.07;100.00;96591.78;5047548;28;20924;-53
2020/12/28 10:53:40;;;;;;;0.20;0.20;;;;;;;6.18;100.00;96582.19;5048753;28;20948;-53
2020/12/28 10:56:12;;;;;;;0.20;0.20;;;;;;;6.25;100.00;96579.94;5043161;28;20975;-53
2020/12/28 10:58:48;;;;;;;0.20;0.10;;;;;;;6.19;100.00;96585.66;5034146;28;20460;-53
2020/12/28 11:01:21;;;;;;;0.20;0.10;;;;;;;6.18;100.00;96584.81;5054399;28;20483;-53
2020/12/28 11:03:51;;;;;;;0.20;0.10;;;;;;;6.26;100.00;96586.88;5049204;28;20461;-52
2020/12/28 11:06:21;;;;;;;0.20;0.10;;;;;;;6.12;100.00;96590.50;5039291;28;20447;-52
2020/12/28 11:08:48;;;;;;;0.20;0.20;;;;;;;6.09;100.00;96581.97;5047863;28;20490;-52
2020/12/28 11:11:19;;;;;;;0.20;0.20;;;;;;;6.00;100.00;96587.88;5046477;28;20470;-52
2020/12/28 11:13:45;;;;;;;0.20;0.10;;;;;;;6.16;100.00;96578.78;5040970;28;20810;-52
2020/12/28 11:16:12;;;;;;;0.20;0.10;;;;;;;5.89;100.00;96573.66;5051226;28;20469;-53
2020/12/28 11:18:39;;;;;;;0.20;0.10;;;;;;;5.86;100.00;96565.94;5036740;28;20480;-53
2020/12/28 11:21:06;;;;;;;0.20;0.10;;;;;;;5.79;100.00;96571.75;5047942;28;20482;-52
2020/12/28 11:26:17;;;;;;;0.20;0.20;;;;;;;5.82;100.00;96542.53;5039829;28;20512;-53
2020/12/28 11:28:44;;;;;;;0.20;0.10;;;;;;;5.89;100.00;96556.97;5051402;28;21011;-53
2020/12/28 11:31:15;;;;;;;0.20;0.13;;;;;;;6.08;100.00;96540.75;5045344;28;20489;-53
2020/12/28 11:33:42;;;;;;;0.20;0.10;;;;;;;6.01;100.00;96545.59;5047346;28;20497;-53
2020/12/28 11:36:08;;;;;;;0.20;0.10;;;;;;;6.06;100.00;96540.84;5041095;28;20850;-53
2020/12/28 11:38:34;;;;;;;0.20;0.13;;;;;;;6.08;100.00;96524.94;5044929;28;20548;-52
2020/12/28 11:41:00;;;;;;;0.20;0.10;;;;;;;6.16;100.00;96531.31;5050120;28;20520;-53